Time;durP1;ratioP1;P1;durP2;ratioP2;P2;SDS_P1;SDS_P2;PMS_P1;PMS_P2;Temp;Humidity;BMP_temperature;BMP_pressure;BME280_temperature;BME280_humidity;BME280_pressure;Samples;Min_cycle;Max_cycle;Signal;HPM_P1;HPM_P2
2023/08/01 00:02:04;;;;;;;7.38;2.50;;;;;;;21.06;100.00;98991.38;5089696;28;20157;-60
2023/08/01 00:04:29;;;;;;;6.82;2.30;;;;;;;21.01;100.00;98985.53;5089194;28;20041;-60
2023/08/01 00:06:55;;;;;;;5.57;2.20;;;;;;;21.03;100.00;98972.72;5085680;28;20032;-60
2023/08/01 00:09:20;;;;;;;5.05;2.70;;;;;;;21.00;100.00;98963.06;5071983;28;20032;-60
2023/08/01 00:11:46;;;;;;;8.40;2.20;;;;;;;20.91;100.00;98964.72;5090495;28;20040;-60
2023/08/01 00:14:11;;;;;;;5.55;2.08;;;;;;;20.89;100.00;98955.91;5086452;28;20024;-61
2023/08/01 00:16:37;;;;;;;6.07;3.03;;;;;;;20.91;100.00;98948.50;5090401;28;20063;-60
2023/08/01 00:19:02;;;;;;;6.90;2.40;;;;;;;20.92;100.00;98952.91;5090214;28;20024;-61
2023/08/01 00:21:27;;;;;;;5.53;2.50;;;;;;;20.97;100.00;98957.06;5089062;28;20028;-61
2023/08/01 00:23:53;;;;;;;6.53;3.28;;;;;;;20.95;100.00;98955.31;5082456;28;20032;-60
2023/08/01 00:26:18;;;;;;;4.70;2.10;;;;;;;20.93;100.00;98978.97;5089299;28;20031;-61
2023/08/01 00:28:44;;;;;;;5.00;2.33;;;;;;;20.92;100.00;98987.22;5089973;28;20648;-61
2023/08/01 00:31:09;;;;;;;7.20;3.50;;;;;;;20.91;100.00;99001.72;5075049;28;20023;-61
2023/08/01 00:33:35;;;;;;;4.05;2.22;;;;;;;20.86;100.00;99004.84;5078785;28;20027;-61
2023/08/01 00:36:01;;;;;;;4.78;2.35;;;;;;;20.79;100.00;99005.50;5070796;28;20408;-61
2023/08/01 00:38:26;;;;;;;6.80;2.78;;;;;;;20.79;100.00;99009.09;5077597;28;20123;-62
2023/08/01 00:40:52;;;;;;;5.95;2.30;;;;;;;20.75;100.00;99017.63;5069659;28;20151;-61
2023/08/01 00:43:18;;;;;;;7.28;2.67;;;;;;;20.64;100.00;98994.25;5070444;28;20044;-62
2023/08/01 00:45:45;;;;;;;5.15;2.42;;;;;;;20.65;100.00;98987.88;5074651;28;20500;-64
2023/08/01 00:48:10;;;;;;;5.30;2.10;;;;;;;20.67;100.00;98985.84;5080191;28;20028;-64
2023/08/01 00:50:36;;;;;;;5.75;2.58;;;;;;;20.64;100.00;98978.03;5070456;28;20608;-63
2023/08/01 00:53:01;;;;;;;5.88;2.85;;;;;;;20.61;100.00;98982.84;5071633;28;20043;-62
2023/08/01 00:55:30;;;;;;;5.65;2.95;;;;;;;20.53;100.00;98958.38;5073515;28;20020;-61
2023/08/01 00:57:55;;;;;;;5.32;2.45;;;;;;;20.56;100.00;98939.19;5070487;28;20467;-62
2023/08/01 01:00:36;;;;;;;7.20;2.47;;;;;;;20.54;100.00;98935.78;5068150;28;20162;-61
2023/08/01 01:03:02;;;;;;;6.30;2.90;;;;;;;20.56;100.00;98926.53;5078114;28;20020;-60
2023/08/01 01:05:35;;;;;;;5.85;2.72;;;;;;;20.63;100.00;98934.94;5065287;28;20127;-60
2023/08/01 01:08:02;;;;;;;5.82;2.85;;;;;;;20.66;100.00;98922.00;5054577;28;20117;-60
2023/08/01 01:10:27;;;;;;;6.72;2.88;;;;;;;20.63;100.00;98930.38;5048893;28;20334;-61
2023/08/01 01:12:53;;;;;;;7.20;2.75;;;;;;;20.63;100.00;98916.88;5051553;28;20028;-60
2023/08/01 01:15:18;;;;;;;7.30;2.95;;;;;;;20.64;100.00;98918.56;5055737;28;20094;-60
2023/08/01 01:17:44;;;;;;;4.63;2.47;;;;;;;20.57;100.00;98906.63;5068988;28;20024;-59
2023/08/01 01:20:10;;;;;;;7.13;3.33;;;;;;;20.60;100.00;98916.28;5067384;28;20071;-60
2023/08/01 01:22:36;;;;;;;6.32;2.95;;;;;;;20.61;100.00;98912.59;5060726;28;20555;-60
2023/08/01 01:25:03;;;;;;;7.07;3.13;;;;;;;20.62;100.00;98898.97;5057189;28;20037;-60
2023/08/01 01:27:29;;;;;;;5.90;2.97;;;;;;;20.61;100.00;98905.34;5068913;28;20088;-59
2023/08/01 01:29:55;;;;;;;6.60;2.88;;;;;;;20.60;100.00;98905.50;5068858;28;20438;-60
2023/08/01 01:32:21;;;;;;;10.90;3.40;;;;;;;20.63;100.00;98907.91;5063043;28;20115;-60
2023/08/01 01:34:47;;;;;;;6.70;2.78;;;;;;;20.61;100.00;98918.84;5060574;28;20138;-60
2023/08/01 01:37:12;;;;;;;6.28;2.83;;;;;;;20.63;100.00;98916.88;5067689;28;20111;-60
2023/08/01 01:39:38;;;;;;;6.07;2.50;;;;;;;20.65;100.00;98914.03;5064084;28;20082;-60
2023/08/01 01:42:03;;;;;;;6.40;2.85;;;;;;;20.67;100.00;98902.06;5051678;28;20473;-59
2023/08/01 01:44:29;;;;;;;6.05;2.80;;;;;;;20.60;100.00;98891.97;5046874;28;20029;-60
2023/08/01 01:46:54;;;;;;;6.18;2.45;;;;;;;20.55;100.00;98868.09;5065679;28;20077;-60
2023/08/01 01:49:19;;;;;;;6.60;2.55;;;;;;;20.53;100.00;98856.56;5066659;28;20029;-60
2023/08/01 01:51:45;;;;;;;6.53;2.65;;;;;;;20.50;100.00;98856.84;5063312;28;20238;-59
2023/08/01 01:54:10;;;;;;;8.18;3.00;;;;;;;20.56;100.00;98855.44;5066016;28;20116;-60
2023/08/01 01:56:36;;;;;;;7.82;3.13;;;;;;;20.57;100.00;98858.00;5061185;28;20020;-59
2023/08/01 01:59:02;;;;;;;6.28;3.10;;;;;;;20.61;100.00;98859.41;5061926;28;20090;-59
2023/08/01 02:01:27;;;;;;;6.90;3.13;;;;;;;20.60;100.00;98863.13;5053050;28;20025;-60
2023/08/01 02:03:52;;;;;;;6.05;2.83;;;;;;;20.61;100.00;98848.59;5074535;28;20050;-59
2023/08/01 02:06:18;;;;;;;7.22;3.35;;;;;;;20.64;100.00;98851.00;5085296;28;20024;-60
2023/08/01 02:08:43;;;;;;;9.18;3.15;;;;;;;20.62;100.00;98853.03;5087934;28;20582;-60
2023/08/01 02:11:08;;;;;;;7.20;3.42;;;;;;;20.64;100.00;98859.13;5082252;28;20036;-59
2023/08/01 02:13:34;;;;;;;6.72;2.65;;;;;;;20.65;100.00;98866.25;5068176;28;20107;-59
2023/08/01 02:15:59;;;;;;;6.20;2.88;;;;;;;20.60;100.00;98863.13;5060868;28;20492;-59
2023/08/01 02:18:25;;;;;;;11.02;3.30;;;;;;;20.56;100.00;98856.28;5087083;28;20054;-59
2023/08/01 02:20:50;;;;;;;6.53;2.75;;;;;;;20.55;100.00;98848.31;5074540;28;20086;-59
2023/08/01 02:23:15;;;;;;;6.32;2.55;;;;;;;20.53;100.00;98856.56;5075558;28;20040;-59
2023/08/01 02:25:41;;;;;;;8.00;3.88;;;;;;;20.55;100.00;98859.13;5079999;28;20404;-60
2023/08/01 02:28:08;;;;;;;7.22;3.15;;;;;;;20.50;100.00;98848.75;5081349;28;20082;-60
2023/08/01 02:30:37;;;;;;;7.07;2.63;;;;;;;20.48;100.00;98853.44;5069636;28;20070;-59
2023/08/01 02:33:02;;;;;;;7.30;2.75;;;;;;;20.55;100.00;98843.78;5087315;28;20044;-59
2023/08/01 02:35:28;;;;;;;6.88;2.58;;;;;;;20.58;100.00;98834.50;5087498;28;20032;-59
2023/08/01 02:37:55;;;;;;;7.13;2.92;;;;;;;20.65;100.00;98832.97;5077936;28;20136;-59
2023/08/01 02:40:20;;;;;;;6.97;2.92;;;;;;;20.63;100.00;98835.81;5087352;28;20111;-59
2023/08/01 02:42:46;;;;;;;7.78;2.83;;;;;;;20.63;100.00;98835.81;5083788;28;20126;-59
2023/08/01 02:45:11;;;;;;;10.45;3.15;;;;;;;20.62;100.00;98838.66;5086654;28;20107;-59
2023/08/01 02:47:36;;;;;;;5.40;2.50;;;;;;;20.62;100.00;98847.63;5084663;28;20065;-59
2023/08/01 02:50:02;;;;;;;5.57;2.38;;;;;;;20.66;100.00;98854.44;5090630;28;20036;-58
2023/08/01 02:52:27;;;;;;;5.80;2.28;;;;;;;20.59;100.00;98833.53;5088742;28;20031;-59
2023/08/01 02:54:53;;;;;;;5.70;2.40;;;;;;;20.68;100.00;98855.16;5089617;28;20024;-59
2023/08/01 02:57:18;;;;;;;6.32;2.50;;;;;;;20.67;100.00;98850.72;5092057;28;20024;-58
2023/08/01 02:59:44;;;;;;;8.30;2.22;;;;;;;20.68;100.00;98857.84;5091924;28;20055;-58
2023/08/01 03:02:09;;;;;;;5.65;2.53;;;;;;;20.70;100.00;98861.28;5089139;28;20070;-58
2023/08/01 03:04:35;;;;;;;7.95;2.22;;;;;;;20.70;100.00;98847.78;5091841;28;20044;-58
2023/08/01 03:07:01;;;;;;;7.32;2.97;;;;;;;20.68;100.00;98849.75;5091554;28;20100;-59
2023/08/01 03:09:26;;;;;;;6.53;2.90;;;;;;;20.71;100.00;98854.00;5074734;28;20848;-59
2023/08/01 03:11:52;;;;;;;5.45;2.22;;;;;;;20.71;100.00;98846.75;5071529;28;20089;-59
2023/08/01 03:14:17;;;;;;;5.22;2.83;;;;;;;20.74;100.00;98848.34;5073883;28;20016;-60
2023/08/01 03:16:42;;;;;;;5.85;2.47;;;;;;;20.71;100.00;98838.66;5089505;28;20468;-60
2023/08/01 03:19:08;;;;;;;5.80;3.42;;;;;;;20.70;100.00;98836.97;5091111;28;20072;-59
2023/08/01 03:21:34;;;;;;;5.00;2.30;;;;;;;20.67;100.00;98820.16;5074098;28;20032;-60
2023/08/01 03:24:01;;;;;;;4.65;2.50;;;;;;;20.57;100.00;98798.56;5071106;28;20040;-58
2023/08/01 03:26:28;;;;;;;5.25;2.00;;;;;;;20.49;100.00;98757.84;5077093;28;20059;-59
2023/08/01 03:28:55;;;;;;;11.02;3.08;;;;;;;20.47;100.00;98699.59;5071186;28;20296;-60
2023/08/01 03:31:21;;;;;;;5.63;2.40;;;;;;;20.42;100.00;98697.31;5072591;28;20115;-59
2023/08/01 03:33:46;;;;;;;6.35;2.45;;;;;;;20.35;100.00;98701.56;5080272;28;20040;-59
2023/08/01 03:36:12;;;;;;;10.90;2.35;;;;;;;20.31;100.00;98662.34;5083213;28;20031;-60
2023/08/01 03:38:38;;;;;;;4.32;1.80;;;;;;;20.31;100.00;98673.13;5085529;28;20024;-60
2023/08/01 03:41:04;;;;;;;6.47;2.70;;;;;;;20.34;100.00;98682.81;5085171;28;20035;-60
2023/08/01 03:43:29;;;;;;;7.03;2.40;;;;;;;20.43;100.00;98677.41;5088334;28;20426;-60
2023/08/01 03:45:55;;;;;;;7.25;2.17;;;;;;;20.46;100.00;98673.56;5079749;28;20032;-61
2023/08/01 03:48:20;;;;;;;5.72;2.95;;;;;;;20.47;100.00;98635.59;5083796;28;20042;-60
2023/08/01 03:50:45;;;;;;;3.80;1.67;;;;;;;20.39;100.00;98581.47;5071501;28;20028;-59
2023/08/01 03:53:11;;;;;;;4.78;2.00;;;;;;;20.43;100.00;98549.59;5075538;28;20023;-60
2023/08/01 03:55:37;;;;;;;4.82;1.73;;;;;;;20.49;100.00;98574.16;5079016;28;20127;-60
2023/08/01 03:58:02;;;;;;;4.47;1.88;;;;;;;20.51;100.00;98566.75;5077878;28;20039;-60
2023/08/01 04:00:32;;;;;;;6.82;2.05;;;;;;;20.47;100.00;98596.94;5084318;28;20024;-59
2023/08/01 04:03:01;;;;;;;4.18;1.85;;;;;;;20.44;100.00;98656.66;5078753;28;20055;-59
2023/08/01 04:05:27;;;;;;;6.53;2.40;;;;;;;20.47;100.00;98722.06;5079528;28;20404;-60
2023/08/01 04:07:54;;;;;;;6.25;2.65;;;;;;;20.44;100.00;98770.97;5084157;28;20550;-60
2023/08/01 04:10:21;;;;;;;6.30;2.40;;;;;;;20.39;100.00;98751.63;5073869;28;20036;-59
2023/08/01 04:12:46;;;;;;;6.93;2.40;;;;;;;20.32;100.00;98750.47;5083644;28;20492;-59
2023/08/01 04:15:12;;;;;;;6.10;2.33;;;;;;;20.32;100.00;98760.44;5072984;28;20052;-59
2023/08/01 04:17:37;;;;;;;7.53;2.67;;;;;;;20.31;100.00;98764.97;5075240;28;20043;-59
2023/08/01 04:20:03;;;;;;;7.65;2.80;;;;;;;20.31;100.00;98769.53;5072500;28;20385;-59
2023/08/01 04:22:28;;;;;;;8.02;2.38;;;;;;;20.34;100.00;98775.50;5069759;28;20058;-59
2023/08/01 04:24:54;;;;;;;8.77;2.95;;;;;;;20.34;100.00;98786.31;5070739;28;20025;-60
2023/08/01 04:27:19;;;;;;;6.25;2.35;;;;;;;20.32;100.00;98782.03;5074305;28;20032;-61
2023/08/01 04:29:45;;;;;;;4.88;2.40;;;;;;;20.37;100.00;98769.81;5071864;28;20028;-58
2023/08/01 04:32:12;;;;;;;6.90;2.80;;;;;;;20.38;100.00;98770.66;5088755;28;20030;-59
2023/08/01 04:34:38;;;;;;;7.40;2.88;;;;;;;20.42;100.00;98762.16;5086826;28;20045;-58
2023/08/01 04:37:04;;;;;;;8.57;2.90;;;;;;;20.45;100.00;98772.66;5087769;28;20032;-58
2023/08/01 04:39:29;;;;;;;6.97;2.70;;;;;;;20.46;100.00;98774.34;5087782;28;20380;-59
2023/08/01 04:41:54;;;;;;;6.10;2.63;;;;;;;20.52;100.00;98773.81;5087612;28;20036;-59
2023/08/01 04:44:20;;;;;;;7.93;2.40;;;;;;;20.49;100.00;98771.38;5084871;28;20747;-58
2023/08/01 04:46:47;;;;;;;8.98;2.72;;;;;;;20.47;100.00;98770.69;5088434;28;20043;-59
2023/08/01 04:49:13;;;;;;;6.35;2.72;;;;;;;20.47;100.00;98783.31;5088866;28;20027;-60
2023/08/01 04:51:38;;;;;;;11.00;3.13;;;;;;;20.45;100.00;98769.09;5088672;28;20032;-60
2023/08/01 04:54:03;;;;;;;8.18;3.15;;;;;;;20.39;100.00;98773.25;5086092;28;20491;-59
2023/08/01 04:56:29;;;;;;;6.13;2.83;;;;;;;20.45;100.00;98769.09;5088009;28;20024;-59
2023/08/01 04:58:54;;;;;;;9.88;2.95;;;;;;;20.48;100.00;98766.97;5087433;28;20535;-59
2023/08/01 05:01:19;;;;;;;6.13;2.95;;;;;;;20.48;100.00;98753.47;5083000;28;20047;-60
2023/08/01 05:03:45;;;;;;;10.32;3.30;;;;;;;20.53;100.00;98756.59;5086180;28;20373;-59
2023/08/01 05:06:10;;;;;;;6.97;3.30;;;;;;;20.56;100.00;98753.59;5086841;28;20036;-59
2023/08/01 05:08:36;;;;;;;9.25;2.88;;;;;;;20.57;100.00;98755.31;5076392;28;20544;-59
2023/08/01 05:11:01;;;;;;;7.40;3.30;;;;;;;20.59;100.00;98744.38;5087664;28;20020;-58
2023/08/01 05:13:26;;;;;;;8.60;3.00;;;;;;;20.61;100.00;98734.25;5079780;28;20040;-59
2023/08/01 05:15:52;;;;;;;9.93;3.20;;;;;;;20.62;100.00;98734.13;5068206;28;20066;-59
2023/08/01 05:18:17;;;;;;;6.95;2.92;;;;;;;20.57;100.00;98728.31;5068589;28;20024;-60
2023/08/01 05:20:43;;;;;;;7.75;2.38;;;;;;;20.62;100.00;98726.03;5070278;28;20429;-59
2023/08/01 05:23:09;;;;;;;10.27;3.05;;;;;;;20.60;100.00;98721.75;5088394;28;20089;-59
2023/08/01 05:25:34;;;;;;;9.98;3.08;;;;;;;20.59;100.00;98709.25;5086690;28;20020;-58
2023/08/01 05:28:00;;;;;;;6.72;2.83;;;;;;;20.61;100.00;98707.22;5086819;28;20020;-58
2023/08/01 05:30:25;;;;;;;7.53;3.28;;;;;;;20.68;100.00;98725.44;5084923;28;20044;-60
2023/08/01 05:32:51;;;;;;;7.07;3.30;;;;;;;20.63;100.00;98743.94;5085452;28;20035;-60
2023/08/01 05:35:17;;;;;;;6.28;2.78;;;;;;;20.71;100.00;98724.28;5086467;28;20033;-60
2023/08/01 05:37:43;;;;;;;7.22;2.30;;;;;;;20.61;100.00;98724.31;5083420;28;20028;-61
2023/08/01 05:40:09;;;;;;;9.88;3.40;;;;;;;20.50;100.00;98724.47;5079812;28;20054;-60
2023/08/01 05:42:34;;;;;;;7.05;2.85;;;;;;;20.42;100.00;98735.13;5075507;28;20080;-61
2023/08/01 05:44:59;;;;;;;6.13;2.33;;;;;;;20.49;100.00;98730.00;5076962;28;20016;-60
2023/08/01 05:47:25;;;;;;;8.57;3.20;;;;;;;20.48;100.00;98739.09;5083496;28;20115;-60
2023/08/01 05:49:50;;;;;;;7.07;2.58;;;;;;;20.49;100.00;98732.72;5075111;28;20031;-60
2023/08/01 05:52:16;;;;;;;8.98;3.13;;;;;;;20.42;100.00;98731.56;5082407;28;20051;-60
2023/08/01 05:54:41;;;;;;;6.07;2.65;;;;;;;20.37;100.00;98732.00;5078410;28;20022;-61
2023/08/01 05:57:07;;;;;;;7.80;3.38;;;;;;;20.32;100.00;98734.28;5076686;28;20028;-61
2023/08/01 05:59:33;;;;;;;9.80;3.25;;;;;;;20.34;100.00;98742.25;5073311;28;20090;-60
2023/08/01 06:01:59;;;;;;;5.70;2.90;;;;;;;20.26;100.00;98744.78;5075633;28;20031;-59
2023/08/01 06:04:24;;;;;;;7.57;3.08;;;;;;;20.27;100.00;98757.28;5074451;28;20041;-59
2023/08/01 06:06:50;;;;;;;9.70;3.67;;;;;;;20.27;100.00;98760.84;5087492;28;20066;-60
2023/08/01 06:09:15;;;;;;;4.90;2.75;;;;;;;20.28;100.00;98765.25;5072012;28;20046;-59
2023/08/01 06:11:41;;;;;;;6.93;2.72;;;;;;;20.25;100.00;98754.72;5050755;28;20135;-59
2023/08/01 06:14:06;;;;;;;8.18;2.65;;;;;;;20.29;100.00;98756.19;5079655;28;20506;-59
2023/08/01 06:16:31;;;;;;;7.28;2.58;;;;;;;20.34;100.00;98750.34;5081472;28;20019;-60
2023/08/01 06:18:58;;;;;;;6.47;2.53;;;;;;;20.38;100.00;98744.50;5087999;28;20384;-59
2023/08/01 06:21:23;;;;;;;9.90;3.28;;;;;;;20.35;100.00;98744.78;5077062;28;20063;-62
2023/08/01 06:23:49;;;;;;;9.45;3.42;;;;;;;20.37;100.00;98741.94;5073341;28;20063;-62
2023/08/01 06:26:15;;;;;;;6.45;3.10;;;;;;;20.35;100.00;98725.03;5087119;28;20085;-62
2023/08/01 06:28:41;;;;;;;7.78;3.05;;;;;;;20.33;100.00;98718.94;5089827;28;20073;-61
2023/08/01 06:31:06;;;;;;;8.45;2.55;;;;;;;20.30;100.00;98720.06;5088304;28;20032;-62
2023/08/01 06:33:32;;;;;;;7.38;2.88;;;;;;;20.31;100.00;98724.44;5084978;28;20019;-62
2023/08/01 06:35:57;;;;;;;7.95;3.08;;;;;;;20.26;100.00;98734.00;5084084;28;20390;-62
2023/08/01 06:38:22;;;;;;;5.82;2.35;;;;;;;20.33;100.00;98746.78;5088933;28;20047;-64
2023/08/01 06:40:48;;;;;;;9.13;3.00;;;;;;;20.28;100.00;98746.34;5073545;28;20417;-65
2023/08/01 06:43:13;;;;;;;7.63;3.40;;;;;;;20.29;100.00;98745.38;5080701;28;20083;-65
2023/08/01 06:45:39;;;;;;;8.52;3.22;;;;;;;20.28;100.00;98749.03;5086828;28;20111;-64
2023/08/01 06:48:04;;;;;;;7.10;3.10;;;;;;;20.19;100.00;98741.81;5080989;28;20035;-64
2023/08/01 06:50:29;;;;;;;7.00;3.00;;;;;;;20.19;100.00;98739.09;5078724;28;20039;-63
2023/08/01 06:52:55;;;;;;;6.90;2.85;;;;;;;20.21;100.00;98753.31;5083181;28;20100;-63
2023/08/01 06:55:20;;;;;;;8.30;3.08;;;;;;;20.17;100.00;98754.59;5088272;28;20111;-62
2023/08/01 06:57:46;;;;;;;7.05;2.70;;;;;;;20.05;100.00;98758.38;5081874;28;20528;-62
2023/08/01 07:00:11;;;;;;;7.13;3.00;;;;;;;20.08;100.00;98768.88;5072173;28;20445;-62
2023/08/01 07:02:37;;;;;;;6.70;2.17;;;;;;;20.09;100.00;98764.34;5077220;28;20039;-63
2023/08/01 07:05:02;;;;;;;7.13;2.65;;;;;;;20.11;100.00;98763.22;5084581;28;20044;-62
2023/08/01 07:07:28;;;;;;;4.95;2.47;;;;;;;20.15;100.00;98761.97;5077634;28;20488;-63
2023/08/01 07:09:53;;;;;;;10.40;2.75;;;;;;;20.18;100.00;98758.97;5088339;28;20038;-63
2023/08/01 07:12:19;;;;;;;9.70;3.33;;;;;;;20.15;100.00;98769.22;5073998;28;20043;-64
2023/08/01 07:14:44;;;;;;;4.43;2.35;;;;;;;20.14;100.00;98762.94;5071273;28;20070;-62
2023/08/01 07:17:09;;;;;;;6.15;2.35;;;;;;;20.22;100.00;98765.81;5071681;28;20029;-64
2023/08/01 07:19:35;;;;;;;6.90;2.60;;;;;;;20.22;100.00;98781.16;5079576;28;20790;-63
2023/08/01 07:22:00;;;;;;;6.57;2.90;;;;;;;20.17;100.00;98778.91;5076099;28;20020;-64
2023/08/01 07:24:26;;;;;;;6.30;2.35;;;;;;;20.21;100.00;98780.34;5077762;28;20664;-64
2023/08/01 07:26:51;;;;;;;8.32;3.00;;;;;;;20.17;100.00;98778.91;5070587;28;20016;-64
2023/08/01 07:29:16;;;;;;;5.90;2.38;;;;;;;20.20;100.00;98784.00;5070348;28;20093;-63
2023/08/01 07:31:42;;;;;;;5.53;2.63;;;;;;;20.27;100.00;98787.88;5079268;28;20019;-63
2023/08/01 07:34:08;;;;;;;4.20;1.98;;;;;;;20.30;100.00;98784.88;5085112;28;20016;-63
2023/08/01 07:36:33;;;;;;;6.85;2.70;;;;;;;20.34;100.00;98789.00;5085393;28;20032;-63
2023/08/01 07:38:59;;;;;;;6.28;2.35;;;;;;;20.31;100.00;98788.44;5076563;28;20028;-63
2023/08/01 07:41:24;;;;;;;6.32;2.55;;;;;;;20.26;100.00;98796.09;5091126;28;20024;-63
2023/08/01 07:43:50;;;;;;;5.40;2.22;;;;;;;20.30;100.00;98794.81;5072878;28;20028;-62
2023/08/01 07:46:15;;;;;;;9.43;2.42;;;;;;;20.30;100.00;98798.38;5091271;28;20020;-62
2023/08/01 07:48:40;;;;;;;5.88;2.03;;;;;;;20.28;100.00;98800.34;5074670;28;20352;-63
2023/08/01 07:51:07;;;;;;;4.93;2.20;;;;;;;20.33;100.00;98806.19;5073287;28;20048;-63
2023/08/01 07:53:34;;;;;;;6.53;2.05;;;;;;;20.31;100.00;98810.03;5070572;28;20686;-63
2023/08/01 07:56:01;;;;;;;4.78;2.00;;;;;;;20.34;100.00;98807.06;5074467;28;20024;-63
2023/08/01 07:58:27;;;;;;;5.60;2.40;;;;;;;20.31;100.00;98813.56;5070365;28;20757;-64
2023/08/01 08:00:52;;;;;;;9.63;2.38;;;;;;;20.31;100.00;98810.88;5082606;28;20089;-64
2023/08/01 08:03:18;;;;;;;4.85;2.35;;;;;;;20.41;100.00;98809.03;5090474;28;20028;-64
2023/08/01 08:05:44;;;;;;;7.03;3.10;;;;;;;20.43;100.00;98804.38;5076260;28;20089;-63
2023/08/01 08:08:10;;;;;;;5.00;2.00;;;;;;;20.49;100.00;98806.50;5070633;28;20039;-63
2023/08/01 08:10:35;;;;;;;5.38;2.33;;;;;;;20.58;100.00;98793.97;5072423;28;20510;-63
2023/08/01 08:13:00;;;;;;;4.90;2.17;;;;;;;20.63;100.00;98803.38;5079833;28;20573;-63
2023/08/01 08:15:26;;;;;;;3.88;2.22;;;;;;;20.61;100.00;98809.91;5069891;28;20725;-62
2023/08/01 08:17:52;;;;;;;5.00;2.15;;;;;;;20.63;100.00;98825.00;5088196;28;20032;-63
2023/08/01 08:20:17;;;;;;;5.13;2.17;;;;;;;20.59;100.00;98820.88;5084120;28;20034;-63
2023/08/01 08:22:43;;;;;;;5.43;2.10;;;;;;;20.62;100.00;98830.56;5089457;28;20032;-63
2023/08/01 08:25:08;;;;;;;7.60;2.33;;;;;;;20.63;100.00;98830.41;5074265;28;20917;-64
2023/08/01 08:27:34;;;;;;;6.20;2.50;;;;;;;20.61;100.00;98831.53;5078380;28;20483;-64
2023/08/01 08:29:59;;;;;;;;;;;;;;;20.51;100.00;98834.22;5085013;28;20852;-63
2023/08/01 08:32:24;;;;;;;;;;;;;;;20.57;100.00;98840.94;5080024;28;20002;-64
2023/08/01 08:34:50;;;;;;;;;;;;;;;20.62;100.00;98844.06;5090072;28;19912;-65
2023/08/01 08:37:15;;;;;;;;;;;;;;;20.57;100.00;98841.78;5090024;28;19915;-65
2023/08/01 08:39:40;;;;;;;;;;;;;;;20.59;100.00;98855.16;5082267;28;20358;-65
2023/08/01 08:42:06;;;;;;;6.03;1.80;;;;;;;20.63;100.00;98862.84;5080513;28;19950;-64
2023/08/01 08:44:42;;;;;;;6.88;2.70;;;;;;;20.57;100.00;98868.81;5072743;28;20107;-64
2023/08/01 08:47:10;;;;;;;5.80;2.40;;;;;;;20.49;100.00;98874.03;5080033;28;20418;-64
2023/08/01 08:49:36;;;;;;;5.03;1.80;;;;;;;20.45;100.00;98899.63;5072617;28;20081;-65
2023/08/01 08:52:03;;;;;;;5.22;1.67;;;;;;;20.38;100.00;98874.16;5074439;28;20512;-64
2023/08/01 08:54:30;;;;;;;4.68;1.63;;;;;;;20.45;100.00;98879.84;5072896;28;20051;-64
2023/08/01 08:56:55;;;;;;;3.60;1.92;;;;;;;20.52;100.00;98883.72;5078873;28;20495;-62
2023/08/01 08:59:21;;;;;;;2.88;1.50;;;;;;;20.50;100.00;98878.47;5087953;28;20066;-62
2023/08/01 09:01:47;;;;;;;2.95;1.38;;;;;;;20.51;100.00;98879.31;5083672;28;20101;-61
2023/08/01 09:04:12;;;;;;;1.80;0.98;;;;;;;20.45;100.00;98875.31;5081937;28;20040;-63
2023/08/01 09:06:48;;;;;;;1.42;0.80;;;;;;;20.57;100.00;98874.22;5086809;28;20087;-62
2023/08/01 09:09:14;;;;;;;2.28;0.70;;;;;;;20.75;100.00;98888.75;5068308;28;20063;-63
2023/08/01 09:11:44;;;;;;;2.90;0.93;;;;;;;20.76;100.00;98890.44;5068193;28;20032;-62
2023/08/01 09:14:10;;;;;;;2.30;0.68;;;;;;;20.87;100.00;98892.16;5069085;28;20036;-63
2023/08/01 09:16:36;;;;;;;0.75;0.60;;;;;;;21.03;100.00;98897.03;5064822;28;20028;-62
2023/08/01 09:19:02;;;;;;;1.13;0.68;;;;;;;20.97;100.00;98897.56;5087317;28;20035;-62
2023/08/01 09:21:33;;;;;;;1.00;0.65;;;;;;;20.94;100.00;98895.97;5078176;28;20101;-62
2023/08/01 09:24:08;;;;;;;1.23;0.60;;;;;;;20.99;100.00;98903.72;5088152;28;20039;-62
2023/08/01 09:26:33;;;;;;;1.10;0.57;;;;;;;20.97;100.00;98908.38;5086927;28;20028;-62
2023/08/01 09:28:58;;;;;;;4.78;0.75;;;;;;;20.86;100.00;98907.53;5070158;28;20032;-62
2023/08/01 09:31:29;;;;;;;1.38;0.60;;;;;;;20.97;100.00;98895.75;5074088;28;20161;-61
2023/08/01 09:33:54;;;;;;;2.03;0.75;;;;;;;21.24;100.00;98916.66;5076261;28;20029;-61
2023/08/01 09:36:23;;;;;;;1.13;0.50;;;;;;;21.63;100.00;98919.16;5068587;28;20029;-61
2023/08/01 09:38:49;;;;;;;0.95;0.70;;;;;;;22.05;100.00;98925.06;5069048;28;20024;-59
2023/08/01 09:41:19;;;;;;;2.00;0.63;;;;;;;22.27;99.61;98921.13;5081626;28;20059;-61
2023/08/01 09:43:46;;;;;;;2.85;0.93;;;;;;;22.74;92.90;98918.19;5071463;28;20036;-61
2023/08/01 09:46:13;;;;;;;1.40;0.70;;;;;;;23.31;90.08;98915.03;5067873;28;20044;-60
2023/08/01 09:48:39;;;;;;;1.35;0.60;;;;;;;23.93;83.68;98916.72;5072068;28;20078;-61
2023/08/01 09:51:06;;;;;;;1.38;0.60;;;;;;;24.56;81.78;98922.66;5078768;28;20055;-62
2023/08/01 09:53:32;;;;;;;1.60;0.80;;;;;;;25.01;76.88;98923.16;5085880;28;20028;-61
2023/08/01 09:56:00;;;;;;;2.25;0.80;;;;;;;25.70;77.14;98930.91;5085792;28;20031;-61
2023/08/01 09:58:31;;;;;;;1.70;0.70;;;;;;;26.10;72.07;98927.25;5083641;28;20692;-61
2023/08/01 10:00:57;;;;;;;3.28;0.52;;;;;;;26.59;69.24;98939.75;5069123;28;20146;-61
2023/08/01 10:03:23;;;;;;;2.97;0.60;;;;;;;26.70;69.60;98948.41;5068884;28;20028;-61
2023/08/01 10:05:53;;;;;;;1.85;0.50;;;;;;;26.21;67.09;98951.44;5066926;28;20052;-62
2023/08/01 10:08:19;;;;;;;4.00;0.73;;;;;;;25.89;68.01;98955.06;5082569;28;20028;-61
2023/08/01 10:10:46;;;;;;;1.77;0.75;;;;;;;25.68;68.74;98952.84;5084790;28;20557;-61
2023/08/01 10:13:13;;;;;;;3.35;0.80;;;;;;;25.54;68.16;98961.69;5086513;28;20414;-61
2023/08/01 10:15:39;;;;;;;2.00;0.90;;;;;;;25.39;69.36;98966.13;5083178;28;20028;-60
2023/08/01 10:18:04;;;;;;;1.10;0.60;;;;;;;25.15;70.62;98952.44;5075474;28;20028;-60
2023/08/01 10:20:32;;;;;;;4.00;0.90;;;;;;;25.43;70.77;98951.16;5085120;28;20149;-61
2023/08/01 10:22:59;;;;;;;4.75;0.60;;;;;;;25.77;71.62;98950.97;5068303;28;20471;-61
2023/08/01 10:25:26;;;;;;;1.88;0.68;;;;;;;25.76;64.63;98950.13;5067263;28;20751;-61
2023/08/01 10:28:05;;;;;;;2.97;0.75;;;;;;;25.71;69.76;98944.34;5075619;28;20447;-61
2023/08/01 10:30:31;;;;;;;4.43;0.80;;;;;;;26.24;68.29;98948.38;5081169;28;20047;-61
2023/08/01 10:32:58;;;;;;;1.13;0.63;;;;;;;26.73;63.98;98952.66;5073879;28;20032;-61
2023/08/01 10:35:37;;;;;;;2.17;0.82;;;;;;;26.93;61.04;98943.00;5067513;28;20040;-60
2023/08/01 10:38:07;;;;;;;2.15;0.55;;;;;;;26.97;62.04;98952.53;5070688;28;20590;-61
2023/08/01 10:40:39;;;;;;;2.97;1.10;;;;;;;26.87;59.25;98949.19;5074612;28;20029;-61
2023/08/01 10:43:05;;;;;;;2.50;1.10;;;;;;;26.66;60.10;98943.47;5054514;28;20029;-61
2023/08/01 10:45:31;;;;;;;2.20;0.80;;;;;;;26.64;60.51;98942.78;5084816;28;20126;-61
2023/08/01 10:48:10;;;;;;;2.25;0.75;;;;;;;26.49;61.00;98939.91;5066527;28;20498;-61
2023/08/01 10:50:36;;;;;;;3.25;0.82;;;;;;;26.65;59.59;98933.56;5069795;28;20097;-60
2023/08/01 10:53:08;;;;;;;4.10;0.90;;;;;;;27.02;59.68;98942.78;5074446;28;20021;-61
2023/08/01 10:55:46;;;;;;;2.08;0.75;;;;;;;27.24;56.58;98941.09;5078565;28;20120;-61
2023/08/01 10:58:12;;;;;;;1.33;0.77;;;;;;;27.68;58.01;98949.50;5086293;28;20494;-61
2023/08/01 11:00:38;;;;;;;5.78;0.90;;;;;;;27.72;58.12;98957.16;5084948;28;20126;-61
2023/08/01 11:03:04;;;;;;;2.13;0.90;;;;;;;27.90;58.89;98954.97;5068045;28;20461;-61
2023/08/01 11:05:29;;;;;;;1.40;0.65;;;;;;;27.61;56.93;98959.47;5065576;28;20288;-60
2023/08/01 11:08:02;;;;;;;1.50;0.70;;;;;;;27.25;60.05;98958.34;5070192;28;20262;-60
2023/08/01 11:10:32;;;;;;;0.60;0.50;;;;;;;26.62;59.10;98966.66;5069218;28;20047;-61
2023/08/01 11:12:59;;;;;;;2.28;0.88;;;;;;;26.42;59.34;98968.09;5073190;28;20027;-61
2023/08/01 11:15:24;;;;;;;3.08;1.45;;;;;;;26.65;60.78;98972.66;5081295;28;20101;-61
2023/08/01 11:17:52;;;;;;;2.60;0.98;;;;;;;26.43;58.72;98972.50;5073244;28;20094;-60
2023/08/01 11:20:21;;;;;;;1.25;0.68;;;;;;;26.20;61.93;98971.53;5081704;28;20071;-59
2023/08/01 11:23:00;;;;;;;2.85;1.00;;;;;;;25.63;59.32;98974.28;5088057;28;20376;-60